sensor_id;sensor_type;location;lat;lon;timestamp;P1;durP1;ratioP1;P2;durP2;ratioP2
16922;SDS011;8578;50.938;13.556;2023-03-01T00:00:09;12.77;;;6.37;;
16922;SDS011;8578;50.938;13.556;2023-03-01T00:02:36;16.00;;;7.00;;
16922;SDS011;8578;50.938;13.556;2023-03-01T00:05:04;13.73;;;6.60;;
16922;SDS011;8578;50.938;13.556;2023-03-01T00:07:34;16.20;;;5.83;;
16922;SDS011;8578;50.938;13.556;2023-03-01T00:10:02;13.27;;;5.70;;
16922;SDS011;8578;50.938;13.556;2023-03-01T00:12:30;13.13;;;5.73;;
16922;SDS011;8578;50.938;13.556;2023-03-01T00:14:58;13.43;;;5.63;;
16922;SDS011;8578;50.938;13.556;2023-03-01T00:17:26;15.93;;;6.13;;
16922;SDS011;8578;50.938;13.556;2023-03-01T00:19:54;15.63;;;6.87;;
16922;SDS011;8578;50.938;13.556;2023-03-01T00:22:22;11.57;;;5.90;;
16922;SDS011;8578;50.938;13.556;2023-03-01T00:24:50;15.47;;;6.73;;
16922;SDS011;8578;50.938;13.556;2023-03-01T00:27:18;14.90;;;6.53;;
16922;SDS011;8578;50.938;13.556;2023-03-01T00:29:45;12.93;;;6.60;;
16922;SDS011;8578;50.938;13.556;2023-03-01T00:32:13;13.27;;;6.40;;
16922;SDS011;8578;50.938;13.556;2023-03-01T00:34:40;13.30;;;6.20;;
16922;SDS011;8578;50.938;13.556;2023-03-01T00:37:07;16.20;;;6.67;;
16922;SDS011;8578;50.938;13.556;2023-03-01T00:39:35;13.77;;;5.97;;
16922;SDS011;8578;50.938;13.556;2023-03-01T00:42:04;11.97;;;6.03;;
16922;SDS011;8578;50.938;13.556;2023-03-01T00:44:31;14.77;;;6.17;;
16922;SDS011;8578;50.938;13.556;2023-03-01T00:47:00;18.03;;;7.57;;
16922;SDS011;8578;50.938;13.556;2023-03-01T00:49:27;14.23;;;7.20;;
16922;SDS011;8578;50.938;13.556;2023-03-01T00:51:55;17.37;;;8.10;;
16922;SDS011;8578;50.938;13.556;2023-03-01T00:54:22;14.73;;;6.93;;
16922;SDS011;8578;50.938;13.556;2023-03-01T00:56:50;17.83;;;7.37;;
16922;SDS011;8578;50.938;13.556;2023-03-01T00:59:19;15.53;;;6.90;;
16922;SDS011;8578;50.938;13.556;2023-03-01T01:01:46;16.83;;;6.77;;
16922;SDS011;8578;50.938;13.556;2023-03-01T01:04:14;12.83;;;6.33;;
16922;SDS011;8578;50.938;13.556;2023-03-01T01:06:42;17.67;;;7.67;;
16922;SDS011;8578;50.938;13.556;2023-03-01T01:09:11;16.50;;;7.47;;
16922;SDS011;8578;50.938;13.556;2023-03-01T01:11:43;16.00;;;7.10;;
16922;SDS011;8578;50.938;13.556;2023-03-01T01:14:11;15.77;;;7.03;;
16922;SDS011;8578;50.938;13.556;2023-03-01T01:16:40;16.20;;;6.20;;
16922;SDS011;8578;50.938;13.556;2023-03-01T01:19:08;17.17;;;6.87;;
16922;SDS011;8578;50.938;13.556;2023-03-01T01:21:36;13.67;;;6.97;;
16922;SDS011;8578;50.938;13.556;2023-03-01T01:24:03;15.47;;;6.43;;
16922;SDS011;8578;50.938;13.556;2023-03-01T01:26:31;14.23;;;6.00;;
16922;SDS011;8578;50.938;13.556;2023-03-01T01:29:00;17.70;;;5.90;;
16922;SDS011;8578;50.938;13.556;2023-03-01T01:31:28;17.67;;;6.80;;
16922;SDS011;8578;50.938;13.556;2023-03-01T01:33:58;13.40;;;6.20;;
16922;SDS011;8578;50.938;13.556;2023-03-01T01:36:26;12.77;;;5.20;;
16922;SDS011;8578;50.938;13.556;2023-03-01T01:38:54;11.30;;;5.83;;
16922;SDS011;8578;50.938;13.556;2023-03-01T01:41:22;15.47;;;5.80;;
16922;SDS011;8578;50.938;13.556;2023-03-01T01:46:34;13.40;;;5.93;;
16922;SDS011;8578;50.938;13.556;2023-03-01T01:49:05;15.73;;;5.77;;
16922;SDS011;8578;50.938;13.556;2023-03-01T01:51:35;12.90;;;5.53;;
16922;SDS011;8578;50.938;13.556;2023-03-01T01:54:05;13.27;;;6.97;;
16922;SDS011;8578;50.938;13.556;2023-03-01T01:56:35;15.93;;;7.43;;
16922;SDS011;8578;50.938;13.556;2023-03-01T01:59:04;11.63;;;5.30;;
16922;SDS011;8578;50.938;13.556;2023-03-01T02:01:32;15.47;;;6.60;;
16922;SDS011;8578;50.938;13.556;2023-03-01T02:03:59;14.30;;;6.10;;
16922;SDS011;8578;50.938;13.556;2023-03-01T02:06:29;15.27;;;6.60;;
16922;SDS011;8578;50.938;13.556;2023-03-01T02:08:59;13.30;;;6.90;;
16922;SDS011;8578;50.938;13.556;2023-03-01T02:11:27;14.07;;;6.00;;
16922;SDS011;8578;50.938;13.556;2023-03-01T02:13:57;12.63;;;5.33;;
16922;SDS011;8578;50.938;13.556;2023-03-01T02:16:24;15.27;;;6.47;;
16922;SDS011;8578;50.938;13.556;2023-03-01T02:18:52;11.80;;;5.30;;
16922;SDS011;8578;50.938;13.556;2023-03-01T02:21:25;15.87;;;5.93;;
16922;SDS011;8578;50.938;13.556;2023-03-01T02:23:57;13.17;;;5.60;;
16922;SDS011;8578;50.938;13.556;2023-03-01T02:26:27;13.47;;;5.90;;
16922;SDS011;8578;50.938;13.556;2023-03-01T02:28:59;10.87;;;4.83;;
16922;SDS011;8578;50.938;13.556;2023-03-01T02:31:26;11.90;;;5.33;;
16922;SDS011;8578;50.938;13.556;2023-03-01T02:34:12;11.20;;;5.40;;
16922;SDS011;8578;50.938;13.556;2023-03-01T02:36:42;10.07;;;5.23;;
16922;SDS011;8578;50.938;13.556;2023-03-01T02:39:11;14.40;;;5.80;;
16922;SDS011;8578;50.938;13.556;2023-03-01T02:41:41;9.13;;;5.37;;
16922;SDS011;8578;50.938;13.556;2023-03-01T02:44:10;15.30;;;5.67;;
16922;SDS011;8578;50.938;13.556;2023-03-01T02:46:41;13.40;;;5.67;;
16922;SDS011;8578;50.938;13.556;2023-03-01T02:49:20;10.83;;;5.23;;
16922;SDS011;8578;50.938;13.556;2023-03-01T02:51:52;10.87;;;5.10;;
16922;SDS011;8578;50.938;13.556;2023-03-01T02:54:25;9.93;;;5.03;;
16922;SDS011;8578;50.938;13.556;2023-03-01T02:56:56;11.23;;;5.07;;
16922;SDS011;8578;50.938;13.556;2023-03-01T02:59:26;13.30;;;5.40;;
16922;SDS011;8578;50.938;13.556;2023-03-01T03:01:55;11.87;;;5.37;;
16922;SDS011;8578;50.938;13.556;2023-03-01T03:04:23;10.53;;;5.40;;
16922;SDS011;8578;50.938;13.556;2023-03-01T03:06:50;12.83;;;5.53;;
16922;SDS011;8578;50.938;13.556;2023-03-01T03:09:18;11.83;;;4.73;;
16922;SDS011;8578;50.938;13.556;2023-03-01T03:11:46;9.57;;;4.67;;
16922;SDS011;8578;50.938;13.556;2023-03-01T03:14:14;13.17;;;5.33;;
16922;SDS011;8578;50.938;13.556;2023-03-01T03:16:46;11.63;;;5.17;;
16922;SDS011;8578;50.938;13.556;2023-03-01T03:19:15;11.70;;;5.53;;
16922;SDS011;8578;50.938;13.556;2023-03-01T03:21:42;13.67;;;5.87;;
16922;SDS011;8578;50.938;13.556;2023-03-01T03:24:10;10.70;;;5.37;;
16922;SDS011;8578;50.938;13.556;2023-03-01T03:26:37;11.47;;;5.57;;
16922;SDS011;8578;50.938;13.556;2023-03-01T03:29:05;13.30;;;5.83;;
16922;SDS011;8578;50.938;13.556;2023-03-01T03:31:32;10.33;;;5.20;;
16922;SDS011;8578;50.938;13.556;2023-03-01T03:34:02;11.33;;;5.63;;
16922;SDS011;8578;50.938;13.556;2023-03-01T03:36:29;8.27;;;4.20;;
16922;SDS011;8578;50.938;13.556;2023-03-01T03:38:57;13.57;;;5.87;;
16922;SDS011;8578;50.938;13.556;2023-03-01T03:41:25;11.07;;;4.87;;
16922;SDS011;8578;50.938;13.556;2023-03-01T03:43:52;15.07;;;5.40;;
16922;SDS011;8578;50.938;13.556;2023-03-01T03:46:20;11.80;;;5.03;;
16922;SDS011;8578;50.938;13.556;2023-03-01T03:48:47;11.03;;;4.83;;
16922;SDS011;8578;50.938;13.556;2023-03-01T03:51:17;11.77;;;5.17;;
16922;SDS011;8578;50.938;13.556;2023-03-01T03:53:45;10.00;;;4.70;;
16922;SDS011;8578;50.938;13.556;2023-03-01T03:56:12;11.10;;;4.83;;
16922;SDS011;8578;50.938;13.556;2023-03-01T03:58:40;10.97;;;5.63;;
16922;SDS011;8578;50.938;13.556;2023-03-01T04:01:07;12.50;;;6.07;;
16922;SDS011;8578;50.938;13.556;2023-03-01T04:03:35;11.67;;;5.67;;
16922;SDS011;8578;50.938;13.556;2023-03-01T04:06:02;11.83;;;5.40;;
16922;SDS011;8578;50.938;13.556;2023-03-01T04:08:32;15.00;;;6.17;;
16922;SDS011;8578;50.938;13.556;2023-03-01T04:11:01;10.80;;;4.87;;
16922;SDS011;8578;50.938;13.556;2023-03-01T04:13:50;15.00;;;4.80;;
16922;SDS011;8578;50.938;13.556;2023-03-01T04:16:18;13.40;;;6.17;;
16922;SDS011;8578;50.938;13.556;2023-03-01T04:18:46;14.83;;;5.60;;
16922;SDS011;8578;50.938;13.556;2023-03-01T04:21:13;10.30;;;5.00;;
16922;SDS011;8578;50.938;13.556;2023-03-01T04:23:42;14.50;;;6.63;;
16922;SDS011;8578;50.938;13.556;2023-03-01T04:26:09;13.20;;;5.87;;
16922;SDS011;8578;50.938;13.556;2023-03-01T04:28:37;12.03;;;5.37;;
16922;SDS011;8578;50.938;13.556;2023-03-01T04:31:06;87.57;;;29.37;;
16922;SDS011;8578;50.938;13.556;2023-03-01T04:33:40;27.27;;;11.07;;
16922;SDS011;8578;50.938;13.556;2023-03-01T04:36:08;24.90;;;8.83;;
16922;SDS011;8578;50.938;13.556;2023-03-01T04:38:36;14.80;;;6.07;;
16922;SDS011;8578;50.938;13.556;2023-03-01T04:41:06;16.17;;;6.07;;
16922;SDS011;8578;50.938;13.556;2023-03-01T04:43:34;13.60;;;5.97;;
16922;SDS011;8578;50.938;13.556;2023-03-01T04:46:01;15.53;;;6.40;;
16922;SDS011;8578;50.938;13.556;2023-03-01T04:48:30;12.73;;;4.67;;
16922;SDS011;8578;50.938;13.556;2023-03-01T04:50:57;12.00;;;5.00;;
16922;SDS011;8578;50.938;13.556;2023-03-01T04:53:25;15.60;;;5.37;;
16922;SDS011;8578;50.938;13.556;2023-03-01T04:55:53;8.80;;;4.23;;
16922;SDS011;8578;50.938;13.556;2023-03-01T04:58:24;12.37;;;4.53;;
16922;SDS011;8578;50.938;13.556;2023-03-01T05:00:52;12.90;;;4.73;;
16922;SDS011;8578;50.938;13.556;2023-03-01T05:03:21;12.93;;;5.47;;
16922;SDS011;8578;50.938;13.556;2023-03-01T05:05:50;17.13;;;6.57;;
16922;SDS011;8578;50.938;13.556;2023-03-01T05:08:18;16.50;;;7.00;;
16922;SDS011;8578;50.938;13.556;2023-03-01T05:10:48;19.17;;;8.17;;
16922;SDS011;8578;50.938;13.556;2023-03-01T05:13:16;90.00;;;28.57;;
16922;SDS011;8578;50.938;13.556;2023-03-01T05:15:52;83.57;;;23.37;;
16922;SDS011;8578;50.938;13.556;2023-03-01T05:18:20;37.27;;;13.87;;
16922;SDS011;8578;50.938;13.556;2023-03-01T05:20:52;22.83;;;9.53;;
16922;SDS011;8578;50.938;13.556;2023-03-01T05:23:24;24.87;;;9.67;;
16922;SDS011;8578;50.938;13.556;2023-03-01T05:25:51;29.97;;;10.83;;
16922;SDS011;8578;50.938;13.556;2023-03-01T05:28:19;29.20;;;10.63;;
16922;SDS011;8578;50.938;13.556;2023-03-01T05:30:48;21.50;;;8.97;;
16922;SDS011;8578;50.938;13.556;2023-03-01T05:33:17;20.50;;;8.07;;
16922;SDS011;8578;50.938;13.556;2023-03-01T05:35:45;14.83;;;6.47;;
16922;SDS011;8578;50.938;13.556;2023-03-01T05:38:15;19.30;;;7.13;;
16922;SDS011;8578;50.938;13.556;2023-03-01T05:40:43;21.23;;;8.33;;
16922;SDS011;8578;50.938;13.556;2023-03-01T05:43:11;24.30;;;8.63;;
16922;SDS011;8578;50.938;13.556;2023-03-01T05:45:39;25.53;;;9.10;;
16922;SDS011;8578;50.938;13.556;2023-03-01T05:48:08;26.00;;;9.30;;
16922;SDS011;8578;50.938;13.556;2023-03-01T05:50:37;29.33;;;11.13;;
16922;SDS011;8578;50.938;13.556;2023-03-01T05:53:06;32.77;;;11.83;;
16922;SDS011;8578;50.938;13.556;2023-03-01T05:55:35;29.40;;;10.30;;
16922;SDS011;8578;50.938;13.556;2023-03-01T05:58:03;23.77;;;9.27;;
16922;SDS011;8578;50.938;13.556;2023-03-01T06:00:32;27.10;;;9.57;;
16922;SDS011;8578;50.938;13.556;2023-03-01T06:02:59;28.17;;;10.00;;
16922;SDS011;8578;50.938;13.556;2023-03-01T06:05:28;28.50;;;10.23;;
16922;SDS011;8578;50.938;13.556;2023-03-01T06:07:58;40.97;;;16.40;;
16922;SDS011;8578;50.938;13.556;2023-03-01T06:10:26;41.83;;;16.07;;
16922;SDS011;8578;50.938;13.556;2023-03-01T06:12:53;41.53;;;15.87;;
16922;SDS011;8578;50.938;13.556;2023-03-01T06:15:21;35.73;;;14.33;;
16922;SDS011;8578;50.938;13.556;2023-03-01T06:17:49;26.10;;;12.30;;
16922;SDS011;8578;50.938;13.556;2023-03-01T06:20:17;29.80;;;12.37;;
16922;SDS011;8578;50.938;13.556;2023-03-01T06:22:46;33.67;;;12.23;;
16922;SDS011;8578;50.938;13.556;2023-03-01T06:25:16;26.70;;;10.63;;
16922;SDS011;8578;50.938;13.556;2023-03-01T06:27:44;25.43;;;9.90;;
16922;SDS011;8578;50.938;13.556;2023-03-01T06:30:12;23.60;;;9.77;;
16922;SDS011;8578;50.938;13.556;2023-03-01T06:32:40;19.20;;;9.17;;
16922;SDS011;8578;50.938;13.556;2023-03-01T06:35:09;21.43;;;9.57;;
16922;SDS011;8578;50.938;13.556;2023-03-01T06:37:37;18.37;;;8.70;;
16922;SDS011;8578;50.938;13.556;2023-03-01T06:40:06;17.00;;;7.80;;
16922;SDS011;8578;50.938;13.556;2023-03-01T06:42:38;14.87;;;7.37;;
16922;SDS011;8578;50.938;13.556;2023-03-01T06:45:07;11.60;;;6.20;;
16922;SDS011;8578;50.938;13.556;2023-03-01T06:47:34;18.63;;;6.93;;
16922;SDS011;8578;50.938;13.556;2023-03-01T06:50:02;18.60;;;6.93;;
16922;SDS011;8578;50.938;13.556;2023-03-01T06:52:30;14.43;;;6.67;;
16922;SDS011;8578;50.938;13.556;2023-03-01T06:54:58;13.27;;;5.80;;
16922;SDS011;8578;50.938;13.556;2023-03-01T06:57:27;12.57;;;5.70;;
16922;SDS011;8578;50.938;13.556;2023-03-01T06:59:54;14.00;;;5.37;;
16922;SDS011;8578;50.938;13.556;2023-03-01T07:02:22;14.77;;;6.93;;
16922;SDS011;8578;50.938;13.556;2023-03-01T07:04:49;13.50;;;6.43;;
16922;SDS011;8578;50.938;13.556;2023-03-01T07:07:17;16.60;;;6.77;;
16922;SDS011;8578;50.938;13.556;2023-03-01T07:09:45;18.23;;;7.63;;
16922;SDS011;8578;50.938;13.556;2023-03-01T07:12:12;12.07;;;6.37;;
16922;SDS011;8578;50.938;13.556;2023-03-01T07:14:41;13.70;;;6.63;;
16922;SDS011;8578;50.938;13.556;2023-03-01T07:17:10;15.17;;;6.37;;
16922;SDS011;8578;50.938;13.556;2023-03-01T07:19:37;14.23;;;6.77;;
16922;SDS011;8578;50.938;13.556;2023-03-01T07:22:05;11.63;;;6.70;;
16922;SDS011;8578;50.938;13.556;2023-03-01T07:24:34;18.53;;;8.03;;
16922;SDS011;8578;50.938;13.556;2023-03-01T07:27:01;16.40;;;6.23;;
16922;SDS011;8578;50.938;13.556;2023-03-01T07:29:29;17.10;;;7.90;;
16922;SDS011;8578;50.938;13.556;2023-03-01T07:31:58;24.70;;;9.47;;
16922;SDS011;8578;50.938;13.556;2023-03-01T07:34:25;20.30;;;9.63;;
16922;SDS011;8578;50.938;13.556;2023-03-01T07:36:53;27.93;;;11.10;;
16922;SDS011;8578;50.938;13.556;2023-03-01T07:39:21;27.33;;;10.97;;
16922;SDS011;8578;50.938;13.556;2023-03-01T07:41:50;23.00;;;10.13;;
16922;SDS011;8578;50.938;13.556;2023-03-01T07:44:20;23.30;;;10.87;;
16922;SDS011;8578;50.938;13.556;2023-03-01T07:46:48;20.03;;;8.63;;
16922;SDS011;8578;50.938;13.556;2023-03-01T07:49:17;27.13;;;10.73;;
16922;SDS011;8578;50.938;13.556;2023-03-01T07:51:44;25.10;;;11.73;;
16922;SDS011;8578;50.938;13.556;2023-03-01T07:54:11;25.57;;;11.07;;
16922;SDS011;8578;50.938;13.556;2023-03-01T07:56:39;22.73;;;10.87;;
16922;SDS011;8578;50.938;13.556;2023-03-01T07:59:07;24.67;;;9.83;;
16922;SDS011;8578;50.938;13.556;2023-03-01T08:01:34;23.77;;;9.33;;
16922;SDS011;8578;50.938;13.556;2023-03-01T08:04:02;21.93;;;8.97;;
16922;SDS011;8578;50.938;13.556;2023-03-01T08:06:35;18.90;;;8.57;;
16922;SDS011;8578;50.938;13.556;2023-03-01T08:09:03;20.73;;;9.93;;
16922;SDS011;8578;50.938;13.556;2023-03-01T08:11:31;22.03;;;9.50;;
16922;SDS011;8578;50.938;13.556;2023-03-01T08:13:58;22.67;;;9.73;;
16922;SDS011;8578;50.938;13.556;2023-03-01T08:16:26;22.87;;;10.53;;
16922;SDS011;8578;50.938;13.556;2023-03-01T08:18:54;18.60;;;8.43;;
16922;SDS011;8578;50.938;13.556;2023-03-01T08:21:22;26.23;;;10.90;;
16922;SDS011;8578;50.938;13.556;2023-03-01T08:23:51;22.07;;;8.93;;
16922;SDS011;8578;50.938;13.556;2023-03-01T08:26:19;19.20;;;9.83;;
16922;SDS011;8578;50.938;13.556;2023-03-01T08:28:47;22.03;;;9.97;;
16922;SDS011;8578;50.938;13.556;2023-03-01T08:31:17;25.57;;;10.23;;
16922;SDS011;8578;50.938;13.556;2023-03-01T08:33:45;26.13;;;10.97;;
16922;SDS011;8578;50.938;13.556;2023-03-01T08:36:16;23.80;;;9.90;;
16922;SDS011;8578;50.938;13.556;2023-03-01T08:38:44;22.53;;;10.30;;
16922;SDS011;8578;50.938;13.556;2023-03-01T08:41:13;31.63;;;12.63;;
16922;SDS011;8578;50.938;13.556;2023-03-01T08:43:41;26.37;;;11.43;;
16922;SDS011;8578;50.938;13.556;2023-03-01T08:46:08;29.17;;;11.93;;
16922;SDS011;8578;50.938;13.556;2023-03-01T08:48:36;28.80;;;12.23;;
16922;SDS011;8578;50.938;13.556;2023-03-01T08:51:07;28.40;;;11.80;;
16922;SDS011;8578;50.938;13.556;2023-03-01T08:53:34;34.90;;;11.93;;
16922;SDS011;8578;50.938;13.556;2023-03-01T08:56:02;25.37;;;10.70;;
16922;SDS011;8578;50.938;13.556;2023-03-01T08:58:31;35.07;;;13.73;;
16922;SDS011;8578;50.938;13.556;2023-03-01T09:00:59;27.10;;;12.47;;
16922;SDS011;8578;50.938;13.556;2023-03-01T09:03:27;28.83;;;12.17;;
16922;SDS011;8578;50.938;13.556;2023-03-01T09:05:59;32.30;;;13.77;;
16922;SDS011;8578;50.938;13.556;2023-03-01T09:08:27;28.10;;;11.90;;
16922;SDS011;8578;50.938;13.556;2023-03-01T09:10:55;25.73;;;10.40;;
16922;SDS011;8578;50.938;13.556;2023-03-01T09:13:22;22.80;;;10.10;;
16922;SDS011;8578;50.938;13.556;2023-03-01T09:15:52;27.33;;;11.70;;
16922;SDS011;8578;50.938;13.556;2023-03-01T09:18:19;25.73;;;11.03;;
16922;SDS011;8578;50.938;13.556;2023-03-01T09:20:47;26.47;;;9.93;;
16922;SDS011;8578;50.938;13.556;2023-03-01T09:23:14;26.83;;;11.97;;
16922;SDS011;8578;50.938;13.556;2023-03-01T09:25:41;26.97;;;12.47;;
16922;SDS011;8578;50.938;13.556;2023-03-01T09:28:09;29.77;;;11.87;;
16922;SDS011;8578;50.938;13.556;2023-03-01T09:30:58;25.73;;;12.50;;
16922;SDS011;8578;50.938;13.556;2023-03-01T09:33:26;28.30;;;10.90;;
16922;SDS011;8578;50.938;13.556;2023-03-01T09:35:57;25.87;;;10.63;;
16922;SDS011;8578;50.938;13.556;2023-03-01T09:38:24;25.87;;;11.77;;
16922;SDS011;8578;50.938;13.556;2023-03-01T09:40:52;24.33;;;11.43;;
16922;SDS011;8578;50.938;13.556;2023-03-01T09:43:21;24.77;;;11.47;;
16922;SDS011;8578;50.938;13.556;2023-03-01T09:45:50;29.00;;;12.17;;
16922;SDS011;8578;50.938;13.556;2023-03-01T09:48:22;22.87;;;11.10;;
16922;SDS011;8578;50.938;13.556;2023-03-01T09:50:51;26.27;;;12.17;;
16922;SDS011;8578;50.938;13.556;2023-03-01T09:53:19;27.63;;;12.53;;
16922;SDS011;8578;50.938;13.556;2023-03-01T09:55:48;24.70;;;12.93;;
16922;SDS011;8578;50.938;13.556;2023-03-01T09:58:29;30.13;;;12.13;;
16922;SDS011;8578;50.938;13.556;2023-03-01T10:00:59;29.17;;;12.50;;
16922;SDS011;8578;50.938;13.556;2023-03-01T10:03:32;27.60;;;12.73;;
16922;SDS011;8578;50.938;13.556;2023-03-01T10:06:02;32.10;;;13.77;;
16922;SDS011;8578;50.938;13.556;2023-03-01T10:08:33;31.77;;;13.53;;
16922;SDS011;8578;50.938;13.556;2023-03-01T10:11:03;26.33;;;12.13;;
16922;SDS011;8578;50.938;13.556;2023-03-01T10:13:33;34.07;;;13.87;;
16922;SDS011;8578;50.938;13.556;2023-03-01T10:16:05;27.83;;;12.73;;
16922;SDS011;8578;50.938;13.556;2023-03-01T10:18:37;29.43;;;13.67;;
16922;SDS011;8578;50.938;13.556;2023-03-01T10:21:09;31.67;;;13.23;;
16922;SDS011;8578;50.938;13.556;2023-03-01T10:23:40;33.87;;;14.63;;
16922;SDS011;8578;50.938;13.556;2023-03-01T10:26:10;34.00;;;14.00;;
16922;SDS011;8578;50.938;13.556;2023-03-01T10:28:43;28.07;;;12.27;;
16922;SDS011;8578;50.938;13.556;2023-03-01T10:31:12;33.10;;;15.20;;
16922;SDS011;8578;50.938;13.556;2023-03-01T10:33:42;28.37;;;14.37;;
16922;SDS011;8578;50.938;13.556;2023-03-01T10:36:09;30.53;;;13.07;;
16922;SDS011;8578;50.938;13.556;2023-03-01T10:38:47;28.00;;;12.97;;
16922;SDS011;8578;50.938;13.556;2023-03-01T10:41:14;26.47;;;12.77;;
16922;SDS011;8578;50.938;13.556;2023-03-01T10:43:43;30.40;;;13.37;;
16922;SDS011;8578;50.938;13.556;2023-03-01T10:46:21;26.03;;;12.93;;
16922;SDS011;8578;50.938;13.556;2023-03-01T10:48:56;25.70;;;12.90;;
16922;SDS011;8578;50.938;13.556;2023-03-01T10:51:31;20.63;;;10.33;;
16922;SDS011;8578;50.938;13.556;2023-03-01T10:53:59;30.60;;;13.70;;
16922;SDS011;8578;50.938;13.556;2023-03-01T10:56:26;25.93;;;12.10;;
16922;SDS011;8578;50.938;13.556;2023-03-01T10:58:57;27.17;;;12.33;;
16922;SDS011;8578;50.938;13.556;2023-03-01T11:01:25;29.30;;;12.90;;
16922;SDS011;8578;50.938;13.556;2023-03-01T11:04:09;26.53;;;11.70;;
16922;SDS011;8578;50.938;13.556;2023-03-01T11:06:37;25.57;;;11.97;;
16922;SDS011;8578;50.938;13.556;2023-03-01T11:09:13;28.53;;;13.30;;
16922;SDS011;8578;50.938;13.556;2023-03-01T11:11:41;24.20;;;11.93;;
16922;SDS011;8578;50.938;13.556;2023-03-01T11:14:13;25.53;;;12.17;;
16922;SDS011;8578;50.938;13.556;2023-03-01T11:16:58;24.23;;;11.40;;
16922;SDS011;8578;50.938;13.556;2023-03-01T11:19:27;25.27;;;12.27;;
16922;SDS011;8578;50.938;13.556;2023-03-01T11:21:57;22.23;;;11.40;;
16922;SDS011;8578;50.938;13.556;2023-03-01T11:24:27;20.63;;;10.03;;
16922;SDS011;8578;50.938;13.556;2023-03-01T11:26:56;23.27;;;10.77;;
16922;SDS011;8578;50.938;13.556;2023-03-01T11:29:27;24.63;;;11.73;;
16922;SDS011;8578;50.938;13.556;2023-03-01T11:32:06;26.77;;;11.63;;
16922;SDS011;8578;50.938;13.556;2023-03-01T11:34:38;21.63;;;11.07;;
16922;SDS011;8578;50.938;13.556;2023-03-01T11:37:09;24.33;;;11.27;;
16922;SDS011;8578;50.938;13.556;2023-03-01T11:39:39;25.93;;;10.47;;
16922;SDS011;8578;50.938;13.556;2023-03-01T11:42:10;23.13;;;9.83;;
16922;SDS011;8578;50.938;13.556;2023-03-01T11:44:44;26.47;;;14.20;;
16922;SDS011;8578;50.938;13.556;2023-03-01T11:47:16;23.23;;;11.63;;
16922;SDS011;8578;50.938;13.556;2023-03-01T11:50:00;22.57;;;11.13;;
16922;SDS011;8578;50.938;13.556;2023-03-01T11:52:31;25.03;;;11.87;;
16922;SDS011;8578;50.938;13.556;2023-03-01T11:57:51;20.83;;;10.47;;
16922;SDS011;8578;50.938;13.556;2023-03-01T12:03:20;20.27;;;9.97;;
16922;SDS011;8578;50.938;13.556;2023-03-01T12:08:41;20.17;;;9.80;;
16922;SDS011;8578;50.938;13.556;2023-03-01T12:11:13;21.87;;;11.17;;
16922;SDS011;8578;50.938;13.556;2023-03-01T12:13:47;18.77;;;9.97;;
16922;SDS011;8578;50.938;13.556;2023-03-01T12:16:20;20.00;;;9.70;;
16922;SDS011;8578;50.938;13.556;2023-03-01T12:19:07;22.73;;;11.30;;
16922;SDS011;8578;50.938;13.556;2023-03-01T12:21:39;20.73;;;10.10;;
16922;SDS011;8578;50.938;13.556;2023-03-01T12:24:22;19.30;;;9.90;;
16922;SDS011;8578;50.938;13.556;2023-03-01T12:26:55;23.93;;;11.17;;
16922;SDS011;8578;50.938;13.556;2023-03-01T12:29:29;19.63;;;9.40;;
16922;SDS011;8578;50.938;13.556;2023-03-01T12:32:01;19.97;;;9.30;;
16922;SDS011;8578;50.938;13.556;2023-03-01T12:34:46;22.97;;;10.40;;
16922;SDS011;8578;50.938;13.556;2023-03-01T12:37:19;17.90;;;9.60;;
16922;SDS011;8578;50.938;13.556;2023-03-01T12:39:54;23.30;;;9.60;;
16922;SDS011;8578;50.938;13.556;2023-03-01T12:42:25;21.70;;;9.53;;
16922;SDS011;8578;50.938;13.556;2023-03-01T12:45:00;18.43;;;9.40;;
16922;SDS011;8578;50.938;13.556;2023-03-01T12:47:34;20.00;;;9.93;;
16922;SDS011;8578;50.938;13.556;2023-03-01T12:50:11;21.87;;;10.27;;
16922;SDS011;8578;50.938;13.556;2023-03-01T12:52:39;19.80;;;10.20;;
16922;SDS011;8578;50.938;13.556;2023-03-01T12:55:16;19.57;;;8.47;;
16922;SDS011;8578;50.938;13.556;2023-03-01T12:57:46;19.03;;;9.30;;
16922;SDS011;8578;50.938;13.556;2023-03-01T13:00:21;17.50;;;10.17;;
16922;SDS011;8578;50.938;13.556;2023-03-01T13:02:54;20.73;;;10.20;;
16922;SDS011;8578;50.938;13.556;2023-03-01T13:05:24;21.00;;;10.30;;
16922;SDS011;8578;50.938;13.556;2023-03-01T13:07:55;21.93;;;10.87;;
16922;SDS011;8578;50.938;13.556;2023-03-01T13:10:29;16.27;;;9.47;;
16922;SDS011;8578;50.938;13.556;2023-03-01T13:13:02;22.23;;;10.80;;
16922;SDS011;8578;50.938;13.556;2023-03-01T13:15:31;17.87;;;8.50;;
16922;SDS011;8578;50.938;13.556;2023-03-01T13:18:00;17.93;;;8.90;;
16922;SDS011;8578;50.938;13.556;2023-03-01T13:20:30;18.50;;;9.43;;
16922;SDS011;8578;50.938;13.556;2023-03-01T13:23:09;16.80;;;9.03;;
16922;SDS011;8578;50.938;13.556;2023-03-01T13:31:09;15.30;;;7.97;;
16922;SDS011;8578;50.938;13.556;2023-03-01T13:33:40;17.50;;;9.20;;
16922;SDS011;8578;50.938;13.556;2023-03-01T13:36:09;17.03;;;8.00;;
16922;SDS011;8578;50.938;13.556;2023-03-01T13:38:44;17.43;;;8.00;;
16922;SDS011;8578;50.938;13.556;2023-03-01T13:41:13;17.27;;;8.17;;
16922;SDS011;8578;50.938;13.556;2023-03-01T13:43:41;17.33;;;9.07;;
16922;SDS011;8578;50.938;13.556;2023-03-01T13:46:11;32.33;;;13.27;;
16922;SDS011;8578;50.938;13.556;2023-03-01T13:48:40;28.93;;;17.30;;
16922;SDS011;8578;50.938;13.556;2023-03-01T13:51:08;22.73;;;11.17;;
16922;SDS011;8578;50.938;13.556;2023-03-01T13:53:38;22.70;;;10.80;;
16922;SDS011;8578;50.938;13.556;2023-03-01T13:56:08;20.10;;;9.67;;
16922;SDS011;8578;50.938;13.556;2023-03-01T13:58:49;17.77;;;10.43;;
16922;SDS011;8578;50.938;13.556;2023-03-01T14:01:23;22.17;;;10.93;;
16922;SDS011;8578;50.938;13.556;2023-03-01T14:03:51;21.43;;;11.47;;
16922;SDS011;8578;50.938;13.556;2023-03-01T14:06:21;21.30;;;10.77;;
16922;SDS011;8578;50.938;13.556;2023-03-01T14:08:49;22.43;;;10.87;;
16922;SDS011;8578;50.938;13.556;2023-03-01T14:11:22;21.50;;;10.47;;
16922;SDS011;8578;50.938;13.556;2023-03-01T14:16:38;22.77;;;11.07;;
16922;SDS011;8578;50.938;13.556;2023-03-01T14:19:15;21.43;;;10.47;;
16922;SDS011;8578;50.938;13.556;2023-03-01T14:22:02;20.17;;;10.63;;
16922;SDS011;8578;50.938;13.556;2023-03-01T14:24:31;20.73;;;11.10;;
16922;SDS011;8578;50.938;13.556;2023-03-01T14:27:01;22.30;;;10.77;;
16922;SDS011;8578;50.938;13.556;2023-03-01T14:29:33;24.47;;;11.50;;
16922;SDS011;8578;50.938;13.556;2023-03-01T14:32:15;21.87;;;10.73;;
16922;SDS011;8578;50.938;13.556;2023-03-01T14:34:45;22.07;;;11.37;;
16922;SDS011;8578;50.938;13.556;2023-03-01T14:37:18;24.00;;;11.00;;
16922;SDS011;8578;50.938;13.556;2023-03-01T14:39:46;21.17;;;10.43;;
16922;SDS011;8578;50.938;13.556;2023-03-01T14:42:14;22.90;;;10.43;;
16922;SDS011;8578;50.938;13.556;2023-03-01T14:44:42;18.77;;;8.87;;
16922;SDS011;8578;50.938;13.556;2023-03-01T14:47:12;19.00;;;10.27;;
16922;SDS011;8578;50.938;13.556;2023-03-01T14:49:41;16.30;;;8.53;;
16922;SDS011;8578;50.938;13.556;2023-03-01T14:52:17;20.00;;;11.80;;
16922;SDS011;8578;50.938;13.556;2023-03-01T14:54:46;21.30;;;10.50;;
16922;SDS011;8578;50.938;13.556;2023-03-01T14:57:14;20.47;;;9.90;;
16922;SDS011;8578;50.938;13.556;2023-03-01T14:59:42;21.30;;;10.23;;
16922;SDS011;8578;50.938;13.556;2023-03-01T15:02:13;24.93;;;10.77;;